createdAt,value
2023-04-13T00:02:06.656Z,11.68
2023-04-13T00:04:37.304Z,11.45
2023-04-13T00:07:07.140Z,12.30
2023-04-13T00:09:37.716Z,15.48
2023-04-13T00:12:11.170Z,13.05
2023-04-13T00:14:40.694Z,20.20
2023-04-13T00:17:10.278Z,6.75
2023-04-13T00:19:41.585Z,10.73
2023-04-13T00:22:11.185Z,14.00
2023-04-13T00:24:44.205Z,12.27
2023-04-13T00:27:16.407Z,9.55
2023-04-13T00:29:45.927Z,12.80
2023-04-13T00:32:15.458Z,13.68
2023-04-13T00:34:45.007Z,15.07
2023-04-13T00:37:14.862Z,15.00
2023-04-13T00:39:46.328Z,9.90
2023-04-13T00:42:21.842Z,10.70
2023-04-13T00:44:51.349Z,9.50
2023-04-13T00:47:28.180Z,9.43
2023-04-13T00:49:58.428Z,8.60
2023-04-13T00:52:29.158Z,14.20
2023-04-13T00:55:02.992Z,7.22
2023-04-13T00:57:36.728Z,10.13
2023-04-13T01:00:09.575Z,14.23
2023-04-13T01:02:42.718Z,14.80
2023-04-13T01:05:15.737Z,9.68
2023-04-13T01:07:57.064Z,9.82
2023-04-13T01:10:31.152Z,12.00
2023-04-13T01:13:13.093Z,13.02
2023-04-13T01:15:52.499Z,10.18
2023-04-13T01:18:23.973Z,17.77
2023-04-13T01:20:55.929Z,15.43
2023-04-13T01:23:38.926Z,14.68
2023-04-13T01:26:09.833Z,14.70
2023-04-13T01:28:42.750Z,17.15
2023-04-13T01:31:14.266Z,14.48
2023-04-13T01:33:45.504Z,16.33
2023-04-13T01:36:15.721Z,11.40
2023-04-13T01:38:46.213Z,15.30
2023-04-13T01:41:15.783Z,12.98
2023-04-13T01:43:48.178Z,13.50
2023-04-13T01:46:18.345Z,15.35
2023-04-13T01:48:50.721Z,14.02
2023-04-13T01:51:23.133Z,15.75
2023-04-13T01:54:00.421Z,9.98
2023-04-13T01:56:31.749Z,15.02
2023-04-13T01:59:06.801Z,10.15
2023-04-13T02:01:36.856Z,14.88
2023-04-13T02:04:07.952Z,18.67
2023-04-13T02:06:37.649Z,14.30
2023-04-13T02:09:07.312Z,8.75
2023-04-13T02:11:38.218Z,15.63
2023-04-13T02:14:10.473Z,13.70
2023-04-13T02:16:40.008Z,12.50
2023-04-13T02:19:09.670Z,12.57
2023-04-13T02:21:39.203Z,14.25
2023-04-13T02:24:09.776Z,13.35
2023-04-13T02:26:40.858Z,13.45
2023-04-13T02:29:12.972Z,14.93
2023-04-13T02:31:45.712Z,14.75
2023-04-13T02:34:15.301Z,16.30
2023-04-13T02:36:46.602Z,15.70
2023-04-13T02:39:16.204Z,10.25
2023-04-13T02:41:45.713Z,15.95
2023-04-13T02:44:17.839Z,16.05
2023-04-13T02:46:47.369Z,18.45
2023-04-13T02:49:17.061Z,15.82
2023-04-13T02:51:47.167Z,15.30
2023-04-13T02:54:16.967Z,13.63
2023-04-13T02:56:46.532Z,11.95
2023-04-13T02:59:19.204Z,18.08
2023-04-13T03:01:48.861Z,15.70
2023-04-13T03:04:18.512Z,18.38
2023-04-13T03:06:49.297Z,14.23
2023-04-13T03:09:19.080Z,18.58
2023-04-13T03:11:48.707Z,13.27
2023-04-13T03:14:23.818Z,17.02
2023-04-13T03:16:54.823Z,18.90
2023-04-13T03:19:24.509Z,15.88
2023-04-13T03:21:54.243Z,19.00
2023-04-13T03:24:23.800Z,16.60
2023-04-13T03:26:55.314Z,20.80
2023-04-13T03:29:27.683Z,19.15
2023-04-13T03:31:57.319Z,19.63
2023-04-13T03:34:26.962Z,16.73
2023-04-13T03:36:56.667Z,22.27
2023-04-13T03:39:26.265Z,19.77
2023-04-13T03:41:56.242Z,24.20
2023-04-13T03:44:28.493Z,18.05
2023-04-13T03:46:58.137Z,22.95
2023-04-13T03:49:27.745Z,21.05
2023-04-13T03:51:57.251Z,22.20
2023-04-13T03:54:26.739Z,25.00
2023-04-13T03:56:58.158Z,18.63
2023-04-13T03:59:30.442Z,20.50
2023-04-13T04:01:59.982Z,22.67
2023-04-13T04:04:29.559Z,28.92
2023-04-13T04:06:59.520Z,24.80
2023-04-13T04:09:29.862Z,27.25
2023-04-13T04:11:59.381Z,27.13
2023-04-13T04:14:31.988Z,25.17
2023-04-13T04:17:01.542Z,25.23
2023-04-13T04:19:31.078Z,29.55
2023-04-13T04:22:04.356Z,29.05
2023-04-13T04:24:33.963Z,28.92
2023-04-13T04:27:05.879Z,30.27
2023-04-13T04:29:38.362Z,30.55
2023-04-13T04:32:11.250Z,30.48
2023-04-13T04:34:41.366Z,33.45
2023-04-13T04:37:20.344Z,28.35
2023-04-13T04:39:50.533Z,28.27
2023-04-13T04:42:21.049Z,29.70
2023-04-13T04:44:53.171Z,33.95
2023-04-13T04:47:24.708Z,26.60
2023-04-13T04:49:58.017Z,26.85
2023-04-13T04:52:28.035Z,31.10
2023-04-13T04:54:57.627Z,28.27
2023-04-13T04:57:29.566Z,28.40
2023-04-13T05:00:02.405Z,30.42
2023-04-13T05:02:32.300Z,26.33
2023-04-13T05:05:02.106Z,24.58
2023-04-13T05:07:31.926Z,30.35
2023-04-13T05:10:01.629Z,29.17
2023-04-13T05:12:31.173Z,31.25
2023-04-13T05:15:03.484Z,28.05
2023-04-13T05:17:33.166Z,35.15
2023-04-13T05:20:03.767Z,37.45
2023-04-13T05:22:33.464Z,36.65
2023-04-13T05:25:03.026Z,38.30
2023-04-13T05:27:32.583Z,36.55
2023-04-13T05:30:05.548Z,35.08
2023-04-13T05:32:37.345Z,31.50
2023-04-13T05:35:08.071Z,28.08
2023-04-13T05:37:40.167Z,29.83
2023-04-13T05:40:13.816Z,28.20
2023-04-13T05:42:45.374Z,27.88
2023-04-13T05:45:17.553Z,34.35
2023-04-13T05:47:47.727Z,29.60
2023-04-13T05:50:17.255Z,28.65
2023-04-13T05:52:47.410Z,27.27
2023-04-13T05:55:17.081Z,28.70
2023-04-13T05:57:46.604Z,30.73
2023-04-13T06:00:21.543Z,31.30
2023-04-13T06:02:51.719Z,26.05
2023-04-13T06:05:22.516Z,25.08
2023-04-13T06:07:52.121Z,26.95
2023-04-13T06:10:21.785Z,26.90
2023-04-13T06:12:52.697Z,26.55
2023-04-13T06:15:24.911Z,25.98
2023-04-13T06:17:55.258Z,24.85
2023-04-13T06:20:24.972Z,27.02
2023-04-13T06:22:54.530Z,28.73
2023-04-13T06:25:24.079Z,28.90
2023-04-13T06:27:53.857Z,28.50
2023-04-13T06:30:25.988Z,25.48
2023-04-13T06:32:55.582Z,24.50
2023-04-13T06:35:25.286Z,26.30
2023-04-13T06:37:54.818Z,27.67
2023-04-13T06:40:25.849Z,24.33
2023-04-13T06:42:55.404Z,32.58
2023-04-13T06:45:27.579Z,27.13
2023-04-13T06:47:57.263Z,17.02
2023-04-13T06:50:26.901Z,27.10
2023-04-13T06:52:56.424Z,28.17
2023-04-13T06:55:26.286Z,26.33
2023-04-13T06:57:56.018Z,29.52
2023-04-13T07:00:31.846Z,25.73
2023-04-13T07:03:02.155Z,22.77
2023-04-13T07:05:32.052Z,28.15
2023-04-13T07:08:01.683Z,27.45
2023-04-13T07:10:31.291Z,24.45
2023-04-13T07:13:00.838Z,30.67
2023-04-13T07:15:33.123Z,26.73
2023-04-13T07:18:02.765Z,25.52
2023-04-13T07:20:32.446Z,29.92
2023-04-13T07:23:02.502Z,25.60
2023-04-13T07:25:32.072Z,29.23
2023-04-13T07:28:01.590Z,27.35
2023-04-13T07:30:33.784Z,30.65
2023-04-13T07:33:03.500Z,25.15
2023-04-13T07:35:33.084Z,20.88
2023-04-13T07:38:02.593Z,26.35
2023-04-13T07:40:32.185Z,33.42
2023-04-13T07:43:01.832Z,24.65
2023-04-13T07:45:34.923Z,34.47
2023-04-13T07:48:06.077Z,40.00
2023-04-13T07:50:35.699Z,36.20
2023-04-13T07:53:05.219Z,34.60
2023-04-13T07:55:34.759Z,28.67
2023-04-13T07:58:04.274Z,25.98
2023-04-13T08:00:36.561Z,29.67
2023-04-13T08:03:06.544Z,24.00
2023-04-13T08:05:38.374Z,25.67
2023-04-13T08:08:08.530Z,24.02
2023-04-13T08:10:38.336Z,22.73
2023-04-13T08:13:07.992Z,24.35
2023-04-13T08:15:40.120Z,26.75
2023-04-13T08:18:09.687Z,21.67
2023-04-13T08:20:39.431Z,23.98
2023-04-13T08:23:10.674Z,23.40
2023-04-13T08:25:42.541Z,22.90
2023-04-13T08:28:13.313Z,27.35
2023-04-13T08:30:46.016Z,25.17
2023-04-13T08:33:15.549Z,20.58
2023-04-13T08:35:45.085Z,22.13
2023-04-13T08:38:14.796Z,18.33
2023-04-13T08:40:44.360Z,21.50
2023-04-13T08:43:14.499Z,16.35
2023-04-13T08:45:47.025Z,17.05
2023-04-13T08:48:19.500Z,17.13
2023-04-13T08:50:49.187Z,13.70
2023-04-13T08:53:19.862Z,13.90
2023-04-13T08:55:51.436Z,14.15
2023-04-13T08:58:24.596Z,15.80
2023-04-13T09:00:57.761Z,15.48
2023-04-13T09:03:29.037Z,14.20
2023-04-13T09:06:05.021Z,12.05
2023-04-13T09:08:36.788Z,15.45
2023-04-13T09:11:06.630Z,15.50
2023-04-13T09:13:36.261Z,13.50
2023-04-13T09:16:09.565Z,13.20
2023-04-13T09:18:39.149Z,16.10
2023-04-13T09:21:10.147Z,16.40
2023-04-13T09:23:39.770Z,16.40
2023-04-13T09:26:10.368Z,13.18
2023-04-13T09:28:50.044Z,18.67
2023-04-13T09:31:22.233Z,16.15
2023-04-13T09:33:53.715Z,15.57
2023-04-13T09:36:24.596Z,19.33
2023-04-13T09:38:55.379Z,16.27
2023-04-13T09:41:35.370Z,18.00
2023-04-13T09:44:06.798Z,17.10
2023-04-13T09:46:39.525Z,17.55
2023-04-13T09:49:09.375Z,20.92
2023-04-13T09:51:40.152Z,14.50
2023-04-13T09:54:10.019Z,14.40
2023-04-13T09:56:47.580Z,13.65
2023-04-13T09:59:17.751Z,15.05
2023-04-13T10:01:51.345Z,14.63
2023-04-13T10:04:21.099Z,15.30
2023-04-13T10:06:52.531Z,13.55
2023-04-13T10:09:22.110Z,13.80
2023-04-13T10:11:53.790Z,17.33
2023-04-13T10:14:28.721Z,13.57
2023-04-13T10:17:14.636Z,13.52
2023-04-13T10:19:48.662Z,12.77
2023-04-13T10:22:20.386Z,13.02
2023-04-13T10:24:50.165Z,11.43
2023-04-13T10:27:22.199Z,12.80
2023-04-13T10:29:52.438Z,11.55
2023-04-13T10:32:29.040Z,14.05
2023-04-13T10:34:58.810Z,13.80
2023-04-13T10:37:31.127Z,10.02
2023-04-13T10:40:14.101Z,11.25
2023-04-13T10:42:52.463Z,10.23
2023-04-13T10:45:26.247Z,8.30
2023-04-13T10:47:58.839Z,8.23
2023-04-13T10:50:29.924Z,8.15
2023-04-13T10:53:00.988Z,5.78
2023-04-13T10:55:30.911Z,7.00
2023-04-13T10:58:01.959Z,5.25
2023-04-13T11:00:45.697Z,4.72
2023-04-13T11:03:19.431Z,5.32
2023-04-13T11:05:50.010Z,6.60
2023-04-13T11:08:21.862Z,7.32
2023-04-13T11:10:55.316Z,4.63
2023-04-13T11:13:25.605Z,5.93
2023-04-13T11:16:03.024Z,6.50
2023-04-13T11:18:35.352Z,3.67
2023-04-13T11:21:08.613Z,4.00
2023-04-13T11:23:38.567Z,7.68
2023-04-13T11:26:08.569Z,4.63
2023-04-13T11:28:43.908Z,5.30
2023-04-13T11:31:13.969Z,4.45
2023-04-13T11:33:46.335Z,3.95
2023-04-13T11:36:15.906Z,4.55
2023-04-13T11:38:46.146Z,3.90
2023-04-13T11:41:17.315Z,6.97
2023-04-13T11:43:49.016Z,4.50
2023-04-13T11:46:25.678Z,4.10
2023-04-13T11:48:58.766Z,4.88
2023-04-13T11:51:29.141Z,5.13
2023-04-13T11:53:58.901Z,6.28
2023-04-13T11:56:28.979Z,5.50
2023-04-13T11:58:59.071Z,8.23
2023-04-13T12:01:34.157Z,6.22
2023-04-13T12:04:15.717Z,7.57
2023-04-13T12:06:48.694Z,6.50
2023-04-13T12:09:22.123Z,5.50
2023-04-13T12:12:11.999Z,6.20
2023-04-13T12:19:57.840Z,8.27
2023-04-13T12:22:49.366Z,7.40
2023-04-13T12:25:24.432Z,4.82
2023-04-13T12:27:55.823Z,6.05
2023-04-13T12:30:26.516Z,6.45
2023-04-13T12:32:58.143Z,4.53
2023-04-13T12:35:30.470Z,4.00
2023-04-13T12:38:00.455Z,4.70
2023-04-13T12:40:29.996Z,4.32
2023-04-13T12:42:59.537Z,6.13
2023-04-13T12:45:31.135Z,4.95
2023-04-13T12:48:00.912Z,4.78
2023-04-13T12:50:33.672Z,4.10
2023-04-13T12:53:03.353Z,4.53
2023-04-13T12:55:33.003Z,4.28
2023-04-13T12:58:02.563Z,5.57
2023-04-13T13:00:32.103Z,3.85
2023-04-13T13:03:12.910Z,3.60
2023-04-13T13:05:46.266Z,4.28
2023-04-13T13:08:15.879Z,3.53
2023-04-13T13:10:45.578Z,4.15
2023-04-13T13:13:17.419Z,4.20
2023-04-13T13:15:47.323Z,2.50
2023-04-13T13:18:16.882Z,2.33
2023-04-13T13:20:49.525Z,3.22
2023-04-13T13:23:19.770Z,2.70
2023-04-13T13:26:04.446Z,3.42
2023-04-13T13:28:40.028Z,4.15
2023-04-13T13:31:10.020Z,6.85
2023-04-13T13:33:39.543Z,3.95
2023-04-13T13:36:14.206Z,3.50
2023-04-13T13:38:44.317Z,2.40
2023-04-13T13:41:13.865Z,3.22
2023-04-13T13:43:43.394Z,3.47
2023-04-13T13:46:13.695Z,3.17
2023-04-13T13:48:43.241Z,5.35
2023-04-13T13:51:15.421Z,3.33
2023-04-13T13:53:45.017Z,3.17
2023-04-13T13:56:14.552Z,2.67
2023-04-13T13:58:44.087Z,2.38
2023-04-13T14:01:13.754Z,2.30
2023-04-13T14:03:43.419Z,3.63
2023-04-13T14:06:15.830Z,3.22
2023-04-13T14:08:45.391Z,3.13
2023-04-13T14:11:15.077Z,3.08
2023-04-13T14:13:44.588Z,4.10
2023-04-13T14:16:14.210Z,5.80
2023-04-13T14:18:43.866Z,3.50
2023-04-13T14:21:16.140Z,3.55
2023-04-13T14:23:46.028Z,5.13
2023-04-13T14:26:15.602Z,4.20
2023-04-13T14:28:45.246Z,4.13
2023-04-13T14:31:14.875Z,4.13
2023-04-13T14:33:45.550Z,7.85
2023-04-13T14:36:19.465Z,4.38
2023-04-13T14:38:51.706Z,4.68
2023-04-13T14:41:21.229Z,5.38
2023-04-13T14:43:51.166Z,4.57
2023-04-13T14:46:21.649Z,3.28
2023-04-13T14:48:51.293Z,3.83
2023-04-13T14:51:23.400Z,4.18
2023-04-13T14:53:56.506Z,4.82
2023-04-13T14:56:27.010Z,6.05
2023-04-13T14:58:56.603Z,5.97
2023-04-13T15:01:26.548Z,5.28
2023-04-13T15:03:56.618Z,5.75
2023-04-13T15:06:29.144Z,5.35
2023-04-13T15:08:58.985Z,5.25
2023-04-13T15:11:29.023Z,6.15
2023-04-13T15:13:58.553Z,6.88
2023-04-13T15:16:28.326Z,5.35
2023-04-13T15:18:58.403Z,4.90
2023-04-13T15:21:31.921Z,6.28
2023-04-13T15:24:01.456Z,5.65
2023-04-13T15:26:32.739Z,6.43
2023-04-13T15:29:02.514Z,5.18
2023-04-13T15:31:32.292Z,7.07
2023-04-13T15:34:01.887Z,4.32
2023-04-13T15:36:34.093Z,6.30
2023-04-13T15:39:04.709Z,5.35
2023-04-13T15:41:34.302Z,5.30
2023-04-13T15:44:03.900Z,8.93
2023-04-13T15:46:35.019Z,8.90
2023-04-13T15:49:04.664Z,5.82
2023-04-13T15:51:36.817Z,5.35
2023-04-13T15:54:06.551Z,5.82
2023-04-13T15:56:36.584Z,6.40
2023-04-13T15:59:06.193Z,7.97
2023-04-13T16:01:47.289Z,9.25
2023-04-13T16:04:17.429Z,7.18
2023-04-13T16:07:05.041Z,7.70
2023-04-13T16:09:39.379Z,8.52
2023-04-13T16:12:12.292Z,7.82
2023-04-13T16:14:44.878Z,7.47
2023-04-13T16:17:15.221Z,7.10
2023-04-13T16:19:47.479Z,8.02
2023-04-13T16:22:19.675Z,10.25
2023-04-13T16:24:49.670Z,11.10
2023-04-13T16:27:19.276Z,10.77
2023-04-13T16:29:49.158Z,8.65
2023-04-13T16:32:18.850Z,8.98
2023-04-13T16:34:48.491Z,8.23
2023-04-13T16:37:20.572Z,8.13
2023-04-13T16:39:50.074Z,10.68
2023-04-13T16:42:19.692Z,9.55
2023-04-13T16:44:49.256Z,9.43
2023-04-13T16:47:18.793Z,8.02
2023-04-13T16:49:48.343Z,8.07
2023-04-13T16:52:20.481Z,9.40
2023-04-13T16:54:49.993Z,9.80
2023-04-13T16:57:19.523Z,12.75
2023-04-13T16:59:49.058Z,10.75
2023-04-13T17:04:54.782Z,10.32
2023-04-13T17:07:28.339Z,11.85
2023-04-13T17:09:58.193Z,11.73
2023-04-13T17:12:28.007Z,9.18
2023-04-13T17:14:58.428Z,10.15
2023-04-13T17:17:28.242Z,9.48
2023-04-13T17:19:58.085Z,9.20
2023-04-13T17:22:30.257Z,9.68
2023-04-13T17:24:59.816Z,8.63
2023-04-13T17:27:29.360Z,8.50
2023-04-13T17:30:00.576Z,10.35
2023-04-13T17:32:30.232Z,8.38
2023-04-13T17:34:59.811Z,11.25
2023-04-13T17:37:32.233Z,8.55
2023-04-13T17:40:02.854Z,7.95
2023-04-13T17:42:32.506Z,9.10
2023-04-13T17:45:02.035Z,11.80
2023-04-13T17:47:31.608Z,9.43
2023-04-13T17:50:01.399Z,10.70
2023-04-13T17:52:33.526Z,8.68
2023-04-13T17:55:03.076Z,9.95
2023-04-13T17:57:32.740Z,9.48
2023-04-13T18:00:02.296Z,9.30
2023-04-13T18:02:31.990Z,8.68
2023-04-13T18:05:01.804Z,8.77
2023-04-13T18:07:33.960Z,9.95
2023-04-13T18:10:03.517Z,11.73
2023-04-13T18:12:33.060Z,13.23
2023-04-13T18:15:02.847Z,11.98
2023-04-13T18:17:32.428Z,12.02
2023-04-13T18:20:02.093Z,10.60
2023-04-13T18:22:35.091Z,10.90
2023-04-13T18:25:04.654Z,13.43
2023-04-13T18:27:34.775Z,11.60
2023-04-13T18:30:04.592Z,12.10
2023-04-13T18:32:34.171Z,14.20
2023-04-13T18:35:06.403Z,12.55
2023-04-13T18:37:38.642Z,10.98
2023-04-13T18:40:09.790Z,11.05
2023-04-13T18:42:40.922Z,9.63
2023-04-13T18:45:11.730Z,10.80
2023-04-13T18:47:41.302Z,10.75
2023-04-13T18:50:12.193Z,10.80
2023-04-13T18:52:44.302Z,9.60
2023-04-13T18:55:13.955Z,9.45
2023-04-13T18:57:43.520Z,8.98
2023-04-13T19:00:14.240Z,8.63
2023-04-13T19:02:46.716Z,8.25
2023-04-13T19:05:16.970Z,9.25
2023-04-13T19:07:58.819Z,10.10
2023-04-13T19:10:29.160Z,11.02
2023-04-13T19:12:58.902Z,13.10
2023-04-13T19:15:28.899Z,12.18
2023-04-13T19:17:59.442Z,12.57
2023-04-13T19:20:28.953Z,12.85
2023-04-13T19:23:01.187Z,11.48
2023-04-13T19:25:30.779Z,13.10
2023-04-13T19:28:00.365Z,14.18
2023-04-13T19:30:29.984Z,12.38
2023-04-13T19:33:00.957Z,13.85
2023-04-13T19:35:31.303Z,11.02
2023-04-13T19:38:03.635Z,11.65
2023-04-13T19:40:33.293Z,15.20
2023-04-13T19:43:02.803Z,11.05
2023-04-13T19:45:32.467Z,10.10
2023-04-13T19:48:02.181Z,13.07
2023-04-13T19:50:31.956Z,12.80
2023-04-13T19:53:04.126Z,11.68
2023-04-13T19:55:33.644Z,11.43
2023-04-13T19:58:03.178Z,14.40
2023-04-13T20:00:32.812Z,17.40
2023-04-13T20:03:03.571Z,11.82
2023-04-13T20:05:33.343Z,12.75
2023-04-13T20:08:05.575Z,12.25
2023-04-13T20:10:35.692Z,12.25
2023-04-13T20:13:05.214Z,10.68
2023-04-13T20:15:35.324Z,11.30
2023-04-13T20:18:07.360Z,12.55
2023-04-13T20:20:39.560Z,12.48
2023-04-13T20:23:12.415Z,15.40
2023-04-13T20:25:42.024Z,16.20
2023-04-13T20:28:11.734Z,12.40
2023-04-13T20:30:41.686Z,13.20
2023-04-13T20:33:11.276Z,12.82
2023-04-13T20:35:40.938Z,20.58
2023-04-13T20:38:14.125Z,17.60
2023-04-13T20:40:46.046Z,14.32
2023-04-13T20:43:15.990Z,17.25
2023-04-13T20:45:46.317Z,14.60
2023-04-13T20:50:49.507Z,15.68
2023-04-13T20:53:21.653Z,15.55
2023-04-13T20:55:51.708Z,16.30
2023-04-13T20:58:21.220Z,16.00
2023-04-13T21:00:51.218Z,13.30
2023-04-13T21:03:22.273Z,15.13
2023-04-13T21:05:52.882Z,12.15
2023-04-13T21:08:25.117Z,10.65
2023-04-13T21:10:54.695Z,13.35
2023-04-13T21:13:25.050Z,15.05
2023-04-13T21:15:54.579Z,12.68
2023-04-13T21:18:24.114Z,14.90
2023-04-13T21:20:54.041Z,14.05
2023-04-13T21:23:26.313Z,12.25
2023-04-13T21:25:55.994Z,18.10
2023-04-13T21:28:25.565Z,12.98
2023-04-13T21:30:55.097Z,16.17
2023-04-13T21:33:24.666Z,13.10
2023-04-13T21:35:54.200Z,15.40
2023-04-13T21:38:26.352Z,12.48
2023-04-13T21:40:55.856Z,10.27
2023-04-13T21:43:25.400Z,12.70
2023-04-13T21:45:55.498Z,13.93
2023-04-13T21:48:25.079Z,11.25
2023-04-13T21:50:55.211Z,13.77
2023-04-13T21:53:27.387Z,10.60
2023-04-13T21:55:56.978Z,14.00
2023-04-13T21:58:26.716Z,13.73
2023-04-13T22:00:56.581Z,13.55
2023-04-13T22:03:26.369Z,12.80
2023-04-13T22:05:56.030Z,12.82
2023-04-13T22:08:28.141Z,14.32
2023-04-13T22:10:57.694Z,16.27
2023-04-13T22:13:27.393Z,15.38
2023-04-13T22:15:57.253Z,14.73
2023-04-13T22:18:27.753Z,17.40
2023-04-13T22:20:57.407Z,14.95
2023-04-13T22:23:29.596Z,12.70
2023-04-13T22:26:01.804Z,13.50
2023-04-13T22:28:31.609Z,14.55
2023-04-13T22:31:08.088Z,13.32
2023-04-13T22:33:40.495Z,15.05
2023-04-13T22:36:20.023Z,12.50
2023-04-13T22:38:52.902Z,14.43
2023-04-13T22:41:22.451Z,12.90
2023-04-13T22:43:51.982Z,11.93
2023-04-13T22:46:21.644Z,11.60
2023-04-13T22:48:51.491Z,9.82
2023-04-13T22:51:21.089Z,11.50
2023-04-13T22:53:53.258Z,13.73
2023-04-13T22:56:22.805Z,10.07
2023-04-13T22:58:52.324Z,13.60
2023-04-13T23:01:21.851Z,10.35
2023-04-13T23:03:51.732Z,11.48
2023-04-13T23:06:21.395Z,11.02
2023-04-13T23:08:53.686Z,14.13
2023-04-13T23:11:26.196Z,13.65
2023-04-13T23:13:56.801Z,15.93
2023-04-13T23:16:26.697Z,13.25
2023-04-13T23:18:56.299Z,11.63
2023-04-13T23:21:27.807Z,12.23
2023-04-13T23:23:59.960Z,14.73
2023-04-13T23:26:29.597Z,10.95
2023-04-13T23:28:59.478Z,14.90
2023-04-13T23:31:29.189Z,11.60
2023-04-13T23:33:58.770Z,9.63
2023-04-13T23:36:28.371Z,12.82
2023-04-13T23:39:00.740Z,9.80
2023-04-13T23:41:30.424Z,12.45
2023-04-13T23:43:59.956Z,11.75
2023-04-13T23:46:30.429Z,12.38
2023-04-13T23:49:00.091Z,13.05
2023-04-13T23:51:29.808Z,11.13
2023-04-13T23:54:02.274Z,10.82
2023-04-13T23:56:32.004Z,10.48
2023-04-13T23:59:01.947Z,11.82
